Time;durP1;ratioP1;P1;durP2;ratioP2;P2;SDS_P1;SDS_P2;PMS_P1;PMS_P2;Temp;Humidity;BMP_temperature;BMP_pressure;BME280_temperature;BME280_humidity;BME280_pressure;Samples;Min_cycle;Max_cycle;Signal;HPM_P1;HPM_P2
2022/03/31 00:00:38;;;;;;;;;;;;;;;5.50;65.85;100230.22;4976309;28;1335;-96
2022/03/31 00:03:08;;;;;;;;;;;;;;;5.48;65.76;100229.59;4972357;28;1611;-96
2022/03/31 00:05:38;;;;;;;;;;;;;;;5.46;65.87;100231.63;4972082;29;1615;-96
2022/03/31 00:08:06;;;;;;;;;;;;;;;5.46;65.81;100231.63;4973768;29;1964;-96
2022/03/31 00:10:36;;;;;;;;;;;;;;;5.43;65.68;100232.81;4973804;29;1626;-96
2022/03/31 00:13:04;;;;;;;;;;;;;;;5.42;65.72;100225.00;4974650;29;1072;-96
2022/03/31 00:15:41;;;;;;;;;;;;;;;5.41;65.80;100223.34;4974245;29;1533;-96
2022/03/31 00:18:10;;;;;;;;;;;;;;;5.39;65.60;100225.41;4974442;29;1458;-96
2022/03/31 00:23:21;;;;;;;;;;;;;;;5.36;65.79;100237.28;4973466;29;1582;-96
2022/03/31 00:25:48;;;;;;;;;;;;;;;5.34;65.67;100234.00;4971437;29;1182;-96
2022/03/31 00:28:16;;;;;;;;;;;;;;;5.31;65.68;100234.38;4973788;28;1891;-96
2022/03/31 00:30:45;;;;;;;;;;;;;;;5.30;65.54;100235.41;4971911;29;1324;-96
2022/03/31 00:33:15;;;;;;;;;;;;;;;5.30;65.58;100234.59;4970993;28;1469;-96
2022/03/31 00:35:51;;;;;;;;;;;;;;;5.28;65.48;100234.75;4972328;28;910;-96
2022/03/31 00:38:21;;;;;;;;;;;;;;;5.25;65.50;100227.13;4973274;28;1442;-96
2022/03/31 00:40:49;;;;;;;;;;;;;;;5.23;65.56;100232.69;4970745;29;1839;-96
2022/03/31 00:43:20;;;;;;;;;;;;;;;5.21;65.68;100234.72;4971982;29;1338;-96
2022/03/31 00:45:56;;;;;;;;;;;;;;;5.21;65.54;100240.06;4971751;29;1442;-96
2022/03/31 00:48:24;;;;;;;;;;;;;;;5.18;65.39;100237.78;4972711;28;1915;-96
2022/03/31 00:50:52;;;;;;;;;;;;;;;5.18;65.51;100242.28;4952468;29;1635;-96
2022/03/31 00:53:20;;;;;;;;;;;;;;;5.15;65.62;100238.16;4969475;29;1364;-96
2022/03/31 00:55:48;;;;;;;;;;;;;;;5.15;65.36;100243.50;4969164;29;1245;-96
2022/03/31 00:58:20;;;;;;;;;;;;;;;5.14;65.69;100236.47;4974433;28;1499;-96
2022/03/31 01:00:50;;;;;;;;;;;;;;;5.12;65.51;100238.53;4972433;28;1485;-96
2022/03/31 01:03:19;;;;;;;;;;;;;;;5.12;65.44;100243.06;4971845;28;1392;-96
2022/03/31 01:05:48;;;;;;;;;;;;;;;5.08;65.48;100242.59;4978015;28;1891;-96
2022/03/31 01:08:16;;;;;;;;;;;;;;;5.08;65.28;100239.09;4991971;28;1964;-96
2022/03/31 01:10:44;;;;;;;;;;;;;;;5.06;65.33;100246.47;4975330;28;1281;-96
2022/03/31 01:13:11;;;;;;;;;;;;;;;5.04;65.28;100244.00;4974787;28;1350;-96
2022/03/31 01:15:40;;;;;;;;;;;;;;;5.03;65.42;100237.03;4991119;28;1589;-96
2022/03/31 01:18:08;;;;;;;;;;;;;;;5.01;65.54;100245.19;4991116;28;1560;-96
2022/03/31 01:20:36;;;;;;;;;;;;;;;5.00;65.36;100246.22;4973508;28;1503;-96
2022/03/31 01:23:04;;;;;;;;;;;;;;;4.99;65.47;100243.75;4973341;28;1577;-96
2022/03/31 01:25:31;;;;;;;;;;;;;;;4.97;65.25;100238.59;4981372;28;1994;-96
2022/03/31 01:28:00;;;;;;;;;;;;;;;4.95;65.27;100245.16;4974816;28;1911;-96
2022/03/31 01:30:28;;;;;;;;;;;;;;;4.92;65.46;100241.00;4989980;28;886;-96
2022/03/31 01:32:55;;;;;;;;;;;;;;;4.91;65.31;100238.53;4961414;29;1795;-96
2022/03/31 01:35:23;;;;;;;;;;;;;;;4.89;65.42;100244.06;4961346;28;1800;-96
2022/03/31 01:37:54;;;;;;;;;;;;;;;4.88;65.47;100245.09;4972804;28;1533;-96
2022/03/31 01:40:22;;;;;;;;;;;;;;;4.87;65.25;100246.09;4983208;28;1441;-96
2022/03/31 01:42:50;;;;;;;;;;;;;;;4.85;65.25;100255.28;4973071;28;1276;-96
2022/03/31 01:45:17;;;;;;;;;;;;;;;4.83;65.31;100247.50;4972812;28;1861;-96
2022/03/31 01:47:45;;;;;;;;;;;;;;;4.83;65.26;100244.81;4989548;28;1969;-96
2022/03/31 01:50:15;;;;;;;;;;;;;;;4.81;65.22;100241.50;4990328;28;964;-96
2022/03/31 01:52:43;;;;;;;;;;;;;;;4.80;65.22;100241.72;4986175;28;1543;-96
2022/03/31 01:55:12;;;;;;;;;;;;;;;4.78;65.25;100240.03;4990091;28;972;-96
2022/03/31 01:57:39;;;;;;;;;;;;;;;4.76;65.31;100244.75;4973691;28;1517;-96
2022/03/31 02:00:07;;;;;;;;;;;;;;;4.75;65.18;100239.59;4990675;28;1612;-96
2022/03/31 02:02:35;;;;;;;;;;;;;;;4.74;65.16;100236.09;4965050;29;1894;-96
2022/03/31 02:05:03;;;;;;;;;;;;;;;4.72;65.13;100231.97;4969881;29;1237;-96
2022/03/31 02:07:30;;;;;;;;;;;;;;;4.70;65.22;100232.16;4982578;28;1907;-96
2022/03/31 02:09:57;;;;;;;;;;;;;;;4.69;65.25;100232.34;4969692;28;1782;-96
2022/03/31 02:12:24;;;;;;;;;;;;;;;4.67;65.26;100231.72;4972065;28;1368;-96
2022/03/31 02:14:52;;;;;;;;;;;;;;;4.64;65.23;100230.25;4971883;28;1463;-96
2022/03/31 02:17:21;;;;;;;;;;;;;;;4.64;65.14;100232.91;4972836;28;1486;-96
2022/03/31 02:19:49;;;;;;;;;;;;;;;4.63;65.13;100233.13;4972993;28;1432;-96
2022/03/31 02:22:17;;;;;;;;;;;;;;;4.63;65.05;100233.13;4989282;28;1466;-96
2022/03/31 02:24:44;;;;;;;;;;;;;;;4.60;65.03;100238.81;4971184;28;1529;-96
2022/03/31 02:27:12;;;;;;;;;;;;;;;4.59;65.07;100231.81;4977027;28;1891;-96
2022/03/31 02:29:40;;;;;;;;;;;;;;;4.57;64.99;100233.88;4976090;28;1442;-96
2022/03/31 02:32:11;;;;;;;;;;;;;;;4.58;65.03;100232.84;4991048;28;1276;-96
2022/03/31 02:34:38;;;;;;;;;;;;;;;4.54;65.13;100233.22;4974937;28;1240;-96
2022/03/31 02:37:05;;;;;;;;;;;;;;;4.53;65.13;100226.25;4976109;28;1842;-96
2022/03/31 02:39:38;;;;;;;;;;;;;;;4.54;65.02;100233.22;4976635;28;1762;-96
2022/03/31 02:42:09;;;;;;;;;;;;;;;4.53;64.90;100242.25;4994069;28;894;-96
2022/03/31 02:44:43;;;;;;;;;;;;;;;4.51;64.68;100233.59;4976745;28;1463;-96
2022/03/31 02:47:14;;;;;;;;;;;;;;;4.49;64.89;100242.78;4976719;28;1925;-96
2022/03/31 02:49:43;;;;;;;;;;;;;;;4.50;64.92;100241.78;4994731;28;1900;-96
2022/03/31 02:52:13;;;;;;;;;;;;;;;4.47;64.70;100243.00;4975474;28;1233;-96
2022/03/31 02:57:30;;;;;;;;;;;;;;;4.47;64.79;100243.00;4964262;29;1200;-96
2022/03/31 02:59:59;;;;;;;;;;;;;;;4.46;64.58;100240.50;4968310;28;1887;-96
2022/03/31 03:02:32;;;;;;;;;;;;;;;4.46;64.76;100241.31;4984787;28;1369;-96
2022/03/31 03:04:59;;;;;;;;;;;;;;;4.47;64.66;100242.16;4972778;29;1291;-96
2022/03/31 03:07:27;;;;;;;;;;;;;;;4.46;64.66;100246.66;4974267;29;1977;-96
2022/03/31 03:09:55;;;;;;;;;;;;;;;4.45;64.49;100245.00;4969632;29;1093;-96
2022/03/31 03:12:27;;;;;;;;;;;;;;;4.46;64.45;100251.16;4973140;28;1193;-96
2022/03/31 03:14:55;;;;;;;;;;;;;;;4.46;64.36;100245.84;4972983;28;1091;-96
2022/03/31 03:17:22;;;;;;;;;;;;;;;4.46;64.50;100253.84;4972228;29;2521;-97
2022/03/31 03:19:51;;;;;;;;;;;;;;;4.44;64.31;100247.84;4974475;29;865;-96
2022/03/31 03:22:19;;;;;;;;;;;;;;;4.43;64.42;100240.88;4972234;29;1477;-96
2022/03/31 03:24:46;;;;;;;;;;;;;;;4.43;64.21;100249.69;4971763;29;1499;-96
2022/03/31 03:27:15;;;;;;;;;;;;;;;4.44;64.28;100250.53;4972475;29;1559;-96
2022/03/31 03:29:46;;;;;;;;;;;;;;;4.41;64.26;100249.09;4971450;29;1946;-96
2022/03/31 03:32:15;;;;;;;;;;;;;;;4.41;64.15;100248.22;4966313;29;1790;-96
2022/03/31 03:34:46;;;;;;;;;;;;;;;4.41;64.13;100245.56;4965488;29;1901;-96
2022/03/31 03:37:16;;;;;;;;;;;;;;;4.40;64.07;100241.25;4987052;28;1566;-96
2022/03/31 03:39:45;;;;;;;;;;;;;;;4.39;64.24;100247.63;4971810;29;1543;-96
2022/03/31 03:42:14;;;;;;;;;;;;;;;4.37;64.19;100246.97;4973117;29;1200;-96
2022/03/31 03:44:47;;;;;;;;;;;;;;;4.38;64.09;100252.09;4972171;29;1509;-96
2022/03/31 03:47:14;;;;;;;;;;;;;;;4.38;64.10;100248.59;4973059;29;1665;-96
2022/03/31 03:49:42;;;;;;;;;;;;;;;4.40;64.04;100250.06;4987246;28;1898;-96
2022/03/31 03:52:09;;;;;;;;;;;;;;;4.38;63.81;100243.28;4974599;29;1257;-96
2022/03/31 03:54:38;;;;;;;;;;;;;;;4.37;64.05;100247.78;4960713;29;1327;-96
2022/03/31 03:57:09;;;;;;;;;;;;;;;4.37;63.98;100245.13;4968998;29;1236;-96
2022/03/31 03:59:40;;;;;;;;;;;;;;;4.38;63.78;100252.09;4973875;28;1670;-96
2022/03/31 04:02:12;;;;;;;;;;;;;;;4.38;63.77;100249.44;4974361;28;1323;-96
2022/03/31 04:04:47;;;;;;;;;;;;;;;4.35;63.73;100255.13;4984795;28;1272;-96
2022/03/31 04:07:16;;;;;;;;;;;;;;;4.33;63.83;100255.34;4976999;28;1543;-96
2022/03/31 04:09:45;;;;;;;;;;;;;;;4.35;63.81;100256.97;4976729;28;1958;-96
2022/03/31 04:12:13;;;;;;;;;;;;;;;4.32;63.98;100250.16;4976472;28;1819;-96
2022/03/31 04:14:42;;;;;;;;;;;;;;;4.35;63.63;100246.31;4991362;28;1440;-96
2022/03/31 04:17:17;;;;;;;;;;;;;;;4.34;63.54;100250.81;4993156;28;1846;-96
2022/03/31 04:19:52;;;;;;;;;;;;;;;4.35;63.63;100255.13;4993188;28;975;-96
2022/03/31 04:22:21;;;;;;;;;;;;;;;4.35;63.37;100246.31;4972118;28;1267;-96
2022/03/31 04:24:51;;;;;;;;;;;;;;;4.35;63.57;100249.81;4993451;28;937;-96
2022/03/31 04:27:18;;;;;;;;;;;;;;;4.35;63.27;100246.31;4977124;28;1333;-96
2022/03/31 04:29:46;;;;;;;;;;;;;;;4.33;63.51;100246.50;4975498;28;1895;-96
2022/03/31 04:32:14;;;;;;;;;;;;;;;4.34;63.36;100245.50;4975624;28;1234;-96
2022/03/31 04:34:44;;;;;;;;;;;;;;;4.34;63.51;100242.81;4992120;28;1390;-96
2022/03/31 04:37:18;;;;;;;;;;;;;;;4.32;63.46;100244.84;4994780;28;886;-96
2022/03/31 04:39:46;;;;;;;;;;;;;;;4.33;63.47;100251.84;4986441;28;1129;-96
2022/03/31 04:42:14;;;;;;;;;;;;;;;4.34;63.27;100242.81;4981247;28;1479;-96
2022/03/31 04:44:42;;;;;;;;;;;;;;;4.35;63.06;100244.47;4974140;28;1240;-96
2022/03/31 04:47:13;;;;;;;;;;;;;;;4.32;63.32;100240.38;4986160;28;1791;-96
2022/03/31 04:49:40;;;;;;;;;;;;;;;4.31;63.16;100246.69;4990085;28;1978;-96
2022/03/31 04:52:07;;;;;;;;;;;;;;;4.33;63.22;100250.00;4970515;28;1809;-96
2022/03/31 04:54:34;;;;;;;;;;;;;;;4.33;63.20;100252.66;4969945;29;1246;-96
2022/03/31 04:57:08;;;;;;;;;;;;;;;4.36;63.08;100253.31;4954890;29;1001;-96
2022/03/31 04:59:41;;;;;;;;;;;;;;;4.34;63.13;100250.81;4974439;29;1257;-96
2022/03/31 05:02:13;;;;;;;;;;;;;;;4.32;63.07;100253.69;4992049;28;1530;-96
2022/03/31 05:04:41;;;;;;;;;;;;;;;4.33;63.03;100258.00;4977441;28;1458;-96
2022/03/31 05:07:23;;;;;;;;;;;;;;;4.31;63.11;100254.69;4993342;28;956;-96
2022/03/31 05:09:53;;;;;;;;;;;;;;;4.30;63.12;100253.03;4991436;28;1895;-96
2022/03/31 05:12:21;;;;;;;;;;;;;;;4.29;63.08;100254.06;4990051;28;1858;-96
2022/03/31 05:14:50;;;;;;;;;;;;;;;4.26;63.17;100257.06;4965315;29;1924;-96
2022/03/31 05:17:18;;;;;;;;;;;;;;;4.31;63.10;100265.34;4947155;28;1562;-96
2022/03/31 05:19:52;;;;;;;;;;;;;;;4.31;63.12;100262.69;4973977;28;1689;-96
2022/03/31 05:22:20;;;;;;;;;;;;;;;4.32;62.96;100268.84;4973027;28;1578;-96
2022/03/31 05:24:49;;;;;;;;;;;;;;;4.30;63.14;100260.22;4990713;28;1550;-96
2022/03/31 05:27:18;;;;;;;;;;;;;;;4.32;62.90;100267.03;4974215;28;1562;-96
2022/03/31 05:29:46;;;;;;;;;;;;;;;4.30;62.93;100262.88;4966665;28;1915;-96
2022/03/31 05:32:15;;;;;;;;;;;;;;;4.32;62.98;100271.50;4973177;28;1544;-96
2022/03/31 05:34:46;;;;;;;;;;;;;;;4.31;62.79;100267.19;4990660;28;1267;-96
2022/03/31 05:37:15;;;;;;;;;;;;;;;4.30;62.98;100279.69;4973485;28;1953;-96
2022/03/31 05:39:45;;;;;;;;;;;;;;;4.27;63.06;100260.59;4975889;28;1879;-96
2022/03/31 05:42:13;;;;;;;;;;;;;;;4.31;62.77;100270.69;4992376;28;1251;-96
2022/03/31 05:44:42;;;;;;;;;;;;;;;4.32;62.68;100271.50;4977819;28;1513;-96
2022/03/31 05:47:13;;;;;;;;;;;;;;;4.31;62.70;100273.34;4992294;28;1817;-96
2022/03/31 05:49:40;;;;;;;;;;;;;;;4.29;62.80;100271.88;4973161;28;1879;-96
2022/03/31 05:52:15;;;;;;;;;;;;;;;4.30;62.70;100274.38;4974660;28;1815;-96
2022/03/31 05:54:43;;;;;;;;;;;;;;;4.30;62.75;100276.22;4972927;28;1412;-96
2022/03/31 05:57:10;;;;;;;;;;;;;;;4.30;62.94;100276.22;4972341;28;1535;-96
2022/03/31 05:59:37;;;;;;;;;;;;;;;4.32;62.64;100276.84;4974891;28;1564;-96
2022/03/31 06:02:04;;;;;;;;;;;;;;;4.32;62.69;100283.03;4975996;28;1453;-96
2022/03/31 06:04:31;;;;;;;;;;;;;;;4.33;62.61;100275.84;4972714;28;1910;-96
2022/03/31 06:06:57;;;;;;;;;;;;;;;4.33;62.65;100278.50;4962867;28;1660;-96
2022/03/31 06:09:24;;;;;;;;;;;;;;;4.30;62.45;100278.88;4961260;28;1978;-96
2022/03/31 06:11:50;;;;;;;;;;;;;;;4.31;62.63;100289.34;4964883;28;1309;-95
2022/03/31 06:14:17;;;;;;;;;;;;;;;4.29;62.70;100288.72;4962262;28;1798;-96
2022/03/31 06:16:44;;;;;;;;;;;;;;;4.36;62.52;100287.97;4958370;28;2388;-96
2022/03/31 06:19:10;;;;;;;;;;;;;;;4.36;62.54;100293.31;4945016;29;1385;-96
2022/03/31 06:21:37;;;;;;;;;;;;;;;4.38;62.52;100293.94;4974863;28;1392;-96
2022/03/31 06:24:03;;;;;;;;;;;;;;;4.30;62.58;100295.69;4960953;28;2116;-96
2022/03/31 06:26:30;;;;;;;;;;;;;;;4.31;62.55;100297.34;4961090;28;1912;-95
2022/03/31 06:28:56;;;;;;;;;;;;;;;4.33;62.71;100295.34;4964677;28;1989;-96
2022/03/31 06:31:23;;;;;;;;;;;;;;;4.32;62.35;100303.50;4953199;28;1710;-96
2022/03/31 06:33:49;;;;;;;;;;;;;;;4.33;62.49;100307.84;4959187;29;1519;-96
2022/03/31 06:36:16;;;;;;;;;;;;;;;4.31;62.45;100308.00;4960476;29;845;-96
2022/03/31 06:38:43;;;;;;;;;;;;;;;4.30;62.60;100305.53;4958135;28;1495;-96
2022/03/31 06:41:13;;;;;;;;;;;;;;;4.32;62.56;100304.34;4974982;28;2002;-96
2022/03/31 06:43:39;;;;;;;;;;;;;;;4.36;62.25;100303.97;4950663;29;1865;-96
2022/03/31 06:46:07;;;;;;;;;;;;;;;4.34;62.48;100301.50;4967041;28;1768;-96
2022/03/31 06:48:35;;;;;;;;;;;;;;;4.32;62.26;100308.84;4958686;29;1980;-95
2022/03/31 06:51:02;;;;;;;;;;;;;;;4.32;62.56;100307.03;4952531;28;2170;-96
2022/03/31 06:53:28;;;;;;;;;;;;;;;4.33;62.44;100307.84;4950913;29;1568;-96
2022/03/31 06:55:55;;;;;;;;;;;;;;;4.35;62.36;100308.47;4973878;28;1678;-96
2022/03/31 06:58:25;;;;;;;;;;;;;;;4.33;62.57;100315.84;4961535;28;1622;-96
2022/03/31 07:00:51;;;;;;;;;;;;;;;4.33;62.51;100318.50;4969802;28;1717;-95
2022/03/31 07:03:18;;;;;;;;;;;;;;;4.36;62.44;100318.13;4971218;28;1303;-96
2022/03/31 07:05:45;;;;;;;;;;;;;;;4.37;62.18;100319.78;4958333;29;1313;-95
2022/03/31 07:08:11;;;;;;;;;;;;;;;4.42;62.12;100319.25;4958883;28;1584;-96
2022/03/31 07:10:39;;;;;;;;;;;;;;;4.40;62.31;100315.91;4960820;28;1990;-96
2022/03/31 07:13:05;;;;;;;;;;;;;;;4.44;62.22;100318.03;4961724;28;1286;-96
2022/03/31 07:15:33;;;;;;;;;;;;;;;4.45;62.08;100319.69;4945158;28;1601;-96
2022/03/31 07:18:03;;;;;;;;;;;;;;;4.40;62.51;100315.91;4942135;29;1286;-96
2022/03/31 07:20:29;;;;;;;;;;;;;;;4.41;62.34;100320.22;4958621;28;1315;-96
2022/03/31 07:22:56;;;;;;;;;;;;;;;4.44;61.99;100317.19;4977751;28;1586;-96
2022/03/31 07:25:22;;;;;;;;;;;;;;;4.46;62.10;100315.19;4945165;29;1395;-96
2022/03/31 07:27:49;;;;;;;;;;;;;;;4.49;61.88;100318.28;4958396;28;1604;-96
2022/03/31 07:30:16;;;;;;;;;;;;;;;4.44;62.20;100311.84;4961622;28;1914;-96
2022/03/31 07:32:42;;;;;;;;;;;;;;;4.41;62.43;100315.75;4962353;28;1280;-96
2022/03/31 07:35:10;;;;;;;;;;;;;;;4.46;62.38;100323.19;4961345;28;1359;-95
2022/03/31 07:37:37;;;;;;;;;;;;;;;4.44;62.20;100318.03;4958883;28;1392;-96
2022/03/31 07:40:03;;;;;;;;;;;;;;;4.48;62.28;100310.50;4961324;28;1366;-96
2022/03/31 07:42:30;;;;;;;;;;;;;;;4.48;62.27;100319.31;4957713;29;1187;-96
2022/03/31 07:44:56;;;;;;;;;;;;;;;4.49;62.18;100317.47;4955068;29;1367;-96
2022/03/31 07:47:23;;;;;;;;;;;;;;;4.49;62.26;100320.13;4942283;29;1211;-96
2022/03/31 07:49:50;;;;;;;;;;;;;;;4.51;62.24;100320.78;4947428;28;1911;-96
2022/03/31 07:52:16;;;;;;;;;;;;;;;4.52;62.04;100315.25;4963150;28;1702;-96
2022/03/31 07:54:43;;;;;;;;;;;;;;;4.52;62.30;100317.91;4955585;29;1317;-96
2022/03/31 07:57:10;;;;;;;;;;;;;;;4.53;62.26;100319.59;4985257;28;1280;-96
2022/03/31 07:59:36;;;;;;;;;;;;;;;4.54;62.45;100318.56;4987853;28;1625;-96
2022/03/31 08:02:03;;;;;;;;;;;;;;;4.55;62.00;100324.72;4956294;28;4968;-96
2022/03/31 08:04:29;;;;;;;;;;;;;;;4.56;62.35;100326.41;4952536;29;5253;-96
2022/03/31 08:06:56;;;;;;;;;;;;;;;4.55;62.21;100317.53;4951134;28;1222;-96
2022/03/31 08:09:23;;;;;;;;;;;;;;;4.59;62.33;100318.03;4961101;28;1907;-96
2022/03/31 08:11:50;;;;;;;;;;;;;;;4.61;62.29;100326.66;4961416;28;1189;-96
2022/03/31 08:14:17;;;;;;;;;;;;;;;4.66;62.08;100312.75;4961593;28;1181;-96
2022/03/31 08:16:46;;;;;;;;;;;;;;;4.63;62.20;100321.16;4962106;28;1182;-96
2022/03/31 08:19:12;;;;;;;;;;;;;;;4.65;62.19;100316.47;4961997;28;1253;-96
2022/03/31 08:21:39;;;;;;;;;;;;;;;4.66;62.44;100318.09;4961082;28;1350;-96
2022/03/31 08:24:06;;;;;;;;;;;;;;;4.69;62.28;100317.72;4961091;28;1452;-96
2022/03/31 08:26:32;;;;;;;;;;;;;;;4.69;62.28;100315.06;4962350;28;1191;-96
2022/03/31 08:28:59;;;;;;;;;;;;;;;4.67;62.25;100311.75;4945965;29;1911;-96
2022/03/31 08:31:27;;;;;;;;;;;;;;;4.69;62.29;100313.22;4943803;29;1751;-96
2022/03/31 08:33:54;;;;;;;;;;;;;;;4.71;62.32;100313.03;4949601;28;1300;-96
2022/03/31 08:36:20;;;;;;;;;;;;;;;4.74;62.38;100315.34;4948739;28;2028;-96
2022/03/31 08:38:47;;;;;;;;;;;;;;;4.74;62.04;100308.16;4967980;28;1950;-96
2022/03/31 08:41:15;;;;;;;;;;;;;;;4.73;62.35;100311.81;4981582;28;1506;-96
2022/03/31 08:43:42;;;;;;;;;;;;;;;4.77;62.32;100315.78;4984169;28;1172;-96
2022/03/31 08:46:09;;;;;;;;;;;;;;;4.77;62.34;100315.78;4968839;28;1305;-96
2022/03/31 08:48:36;;;;;;;;;;;;;;;4.78;62.42;100314.75;4969748;28;1340;-96
2022/03/31 08:51:04;;;;;;;;;;;;;;;4.81;62.27;100318.88;4969723;28;1888;-96
2022/03/31 08:53:32;;;;;;;;;;;;;;;4.80;62.46;100325.25;4970748;28;1178;-96
2022/03/31 08:56:04;;;;;;;;;;;;;;;4.81;62.53;100323.41;4989174;28;911;-96
2022/03/31 08:58:31;;;;;;;;;;;;;;;4.85;62.51;100322.00;4989898;28;885;-96
2022/03/31 09:03:48;;;;;;;;;;;;;;;4.88;62.40;100324.28;4973905;28;1779;-97
2022/03/31 09:06:16;;;;;;;;;;;;;;;4.88;62.52;100327.81;4974432;28;1232;-96
2022/03/31 09:08:48;;;;;;;;;;;;;;;4.89;62.49;100324.13;4972373;28;1198;-96
2022/03/31 09:14:06;;;;;;;;;;;;;;;4.92;62.31;100322.94;4976020;28;1306;-96
2022/03/31 09:16:40;;;;;;;;;;;;;;;4.92;62.61;100323.75;4995328;28;928;-96
2022/03/31 09:34:56;;;;;;;;;;;;;;;5.02;62.82;100328.78;4999635;28;1161;-96
2022/03/31 16:25:31;;;;;;;;;;;;;;;7.27;65.10;100339.31;5016729;28;742;-97
2022/03/31 16:28:24;;;;;;;;;;;;;;;7.27;65.08;100350.84;5018881;28;601;-96
2022/03/31 16:37:35;;;;;;;;;;;;;;;7.25;65.21;100371.66;5066362;23;2076;-96
2022/03/31 16:40:27;;;;;;;;;;;;;;;7.26;64.91;100364.44;4994033;28;1361;-96
2022/03/31 16:43:22;;;;;;;;;;;;;;;7.25;64.79;100370.81;5013030;28;778;-96
2022/03/31 16:55:49;;;;;;;;;;;;;;;7.25;65.27;100389.56;5175325;27;1269;-96
2022/03/31 16:58:41;;;;;;;;;;;;;;;7.22;65.33;100390.81;5192957;27;639;-95
2022/03/31 17:01:34;;;;;;;;;;;;;;;7.23;65.21;100391.63;5191887;27;646;-96
2022/03/31 17:04:25;;;;;;;;;;;;;;;7.21;65.15;100391.03;5189230;27;702;-95
2022/03/31 17:07:21;;;;;;;;;;;;;;;7.20;64.99;100402.75;5188475;27;1882;-94
2022/03/31 17:12:50;;;;;;;;;;;;;;;7.19;65.01;100403.78;5092583;27;1070;-96
2022/03/31 17:20:57;;;;;;;;;;;;;;;7.18;65.41;100410.19;5168905;27;1331;-96
2022/03/31 17:23:27;;;;;;;;;;;;;;;7.17;65.42;100414.69;5151738;27;1857;-95
2022/03/31 17:25:58;;;;;;;;;;;;;;;7.18;65.47;100428.91;5168046;27;881;-94
2022/03/31 17:28:26;;;;;;;;;;;;;;;7.16;65.21;100421.06;5149508;27;1952;-95
2022/03/31 17:30:55;;;;;;;;;;;;;;;7.16;65.46;100430.97;5167021;27;935;-95
2022/03/31 17:33:27;;;;;;;;;;;;;;;7.15;65.52;100429.31;5149830;27;1762;-94
2022/03/31 17:36:01;;;;;;;;;;;;;;;7.14;65.48;100438.38;5152737;27;1068;-96
2022/03/31 17:38:45;;;;;;;;;;;;;;;7.13;65.16;100442.91;5118249;27;1018;-96
2022/03/31 17:41:51;;;;;;;;;;;;;;;7.13;65.64;100447.44;5170580;27;646;-96
2022/03/31 17:44:44;;;;;;;;;;;;;;;7.13;65.49;100450.13;5170364;27;764;-95
2022/03/31 17:47:39;;;;;;;;;;;;;;;7.11;65.51;100444.94;5170362;27;1939;-96
2022/03/31 17:50:33;;;;;;;;;;;;;;;7.11;65.25;100454.84;5169838;27;678;-96
2022/03/31 17:53:31;;;;;;;;;;;;;;;7.09;65.40;100455.06;5168849;27;1276;-96
2022/03/31 17:56:09;;;;;;;;;;;;;;;7.08;65.38;100460.59;5167716;27;991;-96
2022/03/31 17:58:40;;;;;;;;;;;;;;;7.10;65.54;100461.22;5164923;27;995;-96
2022/03/31 18:03:52;;;;;;;;;;;;;;;7.05;65.51;100468.00;5139706;27;1381;-95
2022/03/31 18:06:21;;;;;;;;;;;;;;;7.04;65.74;100468.19;5170036;27;919;-94
2022/03/31 18:08:48;;;;;;;;;;;;;;;7.04;65.73;100468.19;5153452;27;1961;-93
2022/03/31 18:11:15;;;;;;;;;;;;;;;7.03;65.78;100469.25;5152243;27;1268;-95
2022/03/31 18:13:51;;;;;;;;;;;;;;;7.01;65.61;100474.78;5151967;27;1177;-94
2022/03/31 18:16:18;;;;;;;;;;;;;;;7.01;65.77;100480.13;5141989;27;2397;-95
2022/03/31 18:18:45;;;;;;;;;;;;;;;7.01;65.64;100484.66;5169678;27;1482;-95
2022/03/31 18:21:12;;;;;;;;;;;;;;;6.99;65.40;100487.53;5131727;27;1303;-96
2022/03/31 18:23:41;;;;;;;;;;;;;;;6.99;65.71;100489.38;5153513;27;1335;-95
2022/03/31 18:26:08;;;;;;;;;;;;;;;6.98;65.79;100501.94;5131000;27;1250;-95
2022/03/31 18:28:35;;;;;;;;;;;;;;;6.97;65.64;100504.81;5130593;27;1968;-95
2022/03/31 18:33:53;;;;;;;;;;;;;;;6.94;65.84;100515.91;5136128;27;2667;-95
2022/03/31 18:36:20;;;;;;;;;;;;;;;6.91;65.83;100511.81;5150536;27;1365;-95
2022/03/31 18:38:48;;;;;;;;;;;;;;;6.91;65.66;100511.81;5139829;27;1512;-95
2022/03/31 18:41:16;;;;;;;;;;;;;;;6.90;65.77;100520.84;5136657;27;1388;-96
2022/03/31 18:43:44;;;;;;;;;;;;;;;6.89;65.68;100521.06;5129278;27;1206;-95
2022/03/31 18:46:11;;;;;;;;;;;;;;;6.88;65.94;100516.72;5128717;27;1280;-94
2022/03/31 18:48:38;;;;;;;;;;;;;;;6.87;65.97;100523.09;5148519;27;1906;-94
2022/03/31 18:51:07;;;;;;;;;;;;;;;6.86;65.99;100530.31;5128970;27;1534;-96
2022/03/31 18:53:34;;;;;;;;;;;;;;;6.84;65.60;100524.31;5132980;27;1821;-94
2022/03/31 18:56:01;;;;;;;;;;;;;;;6.82;65.98;100532.56;5133191;27;1291;-95
2022/03/31 18:58:40;;;;;;;;;;;;;;;6.79;65.71;100530.28;5155629;27;1317;-95
2022/03/31 19:01:09;;;;;;;;;;;;;;;6.77;65.63;100529.63;5142387;27;1400;-96
2022/03/31 19:03:38;;;;;;;;;;;;;;;6.78;66.07;100538.47;5130484;27;1240;-96
2022/03/31 19:08:51;;;;;;;;;;;;;;;6.75;65.94;100538.88;5137079;27;1914;-96
2022/03/31 19:11:18;;;;;;;;;;;;;;;6.72;66.06;100550.78;5128416;27;1519;-95
2022/03/31 19:13:51;;;;;;;;;;;;;;;6.71;65.93;100559.84;5140773;27;1141;-96
2022/03/31 19:16:20;;;;;;;;;;;;;;;6.70;66.12;100557.34;5159589;27;1672;-95
2022/03/31 19:18:47;;;;;;;;;;;;;;;6.67;65.71;100563.91;5150980;27;1411;-96
2022/03/31 19:21:14;;;;;;;;;;;;;;;6.66;65.93;100564.94;5151946;27;1081;-96
2022/03/31 19:23:41;;;;;;;;;;;;;;;6.66;65.88;100566.81;5146468;27;1309;-94
2022/03/31 19:26:08;;;;;;;;;;;;;;;6.63;65.78;100565.34;5126088;27;1190;-95
2022/03/31 19:28:34;;;;;;;;;;;;;;;6.62;65.75;100569.03;5138667;27;1913;-96
2022/03/31 19:31:01;;;;;;;;;;;;;;;6.60;65.77;100563.06;5148513;27;1246;-94
2022/03/31 19:33:29;;;;;;;;;;;;;;;6.58;66.18;100570.44;5131884;27;1261;-95
2022/03/31 19:35:57;;;;;;;;;;;;;;;6.57;65.82;100572.28;5125116;27;1395;-95
2022/03/31 19:38:23;;;;;;;;;;;;;;;6.56;66.18;100577.84;5127938;27;1173;-94
2022/03/31 19:40:50;;;;;;;;;;;;;;;6.55;66.17;100584.19;5127526;27;1324;-94
2022/03/31 19:43:16;;;;;;;;;;;;;;;6.53;65.84;100584.41;5126379;27;1175;-95
2022/03/31 19:45:44;;;;;;;;;;;;;;;6.53;66.11;100584.41;5134564;27;1739;-95
2022/03/31 19:48:12;;;;;;;;;;;;;;;6.52;65.82;100579.22;5132419;27;1890;-95
2022/03/31 19:50:39;;;;;;;;;;;;;;;6.49;66.08;100585.78;5122977;27;1469;-96
2022/03/31 19:53:07;;;;;;;;;;;;;;;6.47;66.13;100585.19;5132440;27;1433;-95
2022/03/31 19:55:34;;;;;;;;;;;;;;;6.46;65.92;100593.38;5121158;27;1247;-96
2022/03/31 19:58:01;;;;;;;;;;;;;;;6.45;65.94;100587.22;5124437;27;1410;-96
2022/03/31 20:00:28;;;;;;;;;;;;;;;6.43;65.79;100597.28;5127068;27;2085;-95
2022/03/31 20:02:55;;;;;;;;;;;;;;;6.42;65.89;100595.63;5127214;27;2594;-93
2022/03/31 20:05:22;;;;;;;;;;;;;;;6.41;66.03;100599.28;5124408;27;1506;-94
2022/03/31 20:07:49;;;;;;;;;;;;;;;6.41;65.85;100615.34;5122380;27;1910;-95
2022/03/31 20:10:16;;;;;;;;;;;;;;;6.39;65.94;100605.88;5121340;27;1237;-94
2022/03/31 20:12:42;;;;;;;;;;;;;;;6.36;66.02;100609.75;5121844;27;1550;-94
2022/03/31 20:15:09;;;;;;;;;;;;;;;6.36;65.89;100607.09;5120756;27;1229;-96
2022/03/31 20:17:36;;;;;;;;;;;;;;;6.34;65.85;100612.63;5133098;27;1444;-95
2022/03/31 20:20:03;;;;;;;;;;;;;;;6.34;66.18;100620.66;5143998;27;1285;-94
2022/03/31 20:22:30;;;;;;;;;;;;;;;6.32;65.80;100621.84;5137880;27;1813;-94
2022/03/31 20:24:56;;;;;;;;;;;;;;;6.30;65.81;100616.69;5136769;27;1198;-96
2022/03/31 20:27:23;;;;;;;;;;;;;;;6.28;65.75;100621.41;5141586;27;1984;-93
2022/03/31 20:29:50;;;;;;;;;;;;;;;6.29;66.04;100624.91;5140135;27;1521;-93
2022/03/31 20:32:17;;;;;;;;;;;;;;;6.27;65.74;100625.09;5120085;27;1238;-93
2022/03/31 20:34:43;;;;;;;;;;;;;;;6.26;65.72;100630.63;5119689;27;2805;-93
2022/03/31 20:37:13;;;;;;;;;;;;;;;6.24;65.85;100630.00;5122856;27;1607;-93
2022/03/31 20:39:40;;;;;;;;;;;;;;;6.24;66.14;100640.72;5129211;28;2037;-94
2022/03/31 20:42:06;;;;;;;;;;;;;;;6.21;66.04;100641.09;5118737;28;2086;-93
2022/03/31 20:44:33;;;;;;;;;;;;;;;6.19;65.86;100638.59;5133568;27;1173;-94
2022/03/31 20:46:59;;;;;;;;;;;;;;;6.18;66.13;100639.63;5121232;27;1366;-94
2022/03/31 20:49:26;;;;;;;;;;;;;;;6.16;65.75;100647.00;5132917;28;1988;-95
2022/03/31 20:51:52;;;;;;;;;;;;;;;6.16;66.00;100644.31;5123756;28;1697;-94
2022/03/31 20:54:19;;;;;;;;;;;;;;;6.15;66.01;100645.34;5133264;28;1948;-94
2022/03/31 20:56:46;;;;;;;;;;;;;;;6.13;65.69;100645.53;5118918;28;1538;-95